INFORMACIÓN METAR y TAF
METAR FOR GCFV
ADDS - METARS form results

(1020 UTC 03 December 2021)
Data provider http://aviationweather.gov/metar/data/
 
METAR text: GCFV 031000Z 04021KT 9999 SCT030 20/11 Q1022
Conditions at: GCFV (FUERTEVENTURA AR, ES) observed 1000 UTC 03 December 2021
Temperature: 20.0°C (68°F)
Dewpoint: 11.0°C (52°F) [RH = 56%]
Pressure (altimeter): 30.18 inches Hg (1022.0 mb)
Winds: from the NE (40 degrees) at 24 MPH (21 knots; 10.8 m/s)
Visibility: 6 or more miles (10+ km)
Ceiling: at least 12,000 feet AGL
Clouds: scattered clouds at 3000 feet AGL
Weather: no significant weather observed at this time

METAR text: GCFV 030930Z 03021KT 9999 SCT030 19/11 Q1022
Conditions at: GCFV (FUERTEVENTURA AR, ES) observed 0930 UTC 03 December 2021
Temperature: 19.0°C (66°F)
Dewpoint: 11.0°C (52°F) [RH = 60%]
Pressure (altimeter): 30.18 inches Hg (1022.0 mb)
Winds: from the NNE (30 degrees) at 24 MPH (21 knots; 10.8 m/s)
Visibility: 6 or more miles (10+ km)
Ceiling: at least 12,000 feet AGL
Clouds: scattered clouds at 3000 feet AGL
Weather: no significant weather observed at this time

Forecast for: GCFV (FUERTEVENTURA AR, ES)
Text: TAF GCFV 030800Z 0309/0409 03018KT 9999 FEW025 SCT045 TX22/0314Z TN19/0406Z
Forecast period: 0900 UTC 03 December 2021 to 0900 UTC 04 December 2021
Forecast type: FROM: standard forecast or significant change
Winds: from the NNE (30 degrees) at 21 MPH (18 knots; 9.3 m/s)
Visibility: 6 or more miles (10+ km)
Ceiling: at least 12,000 feet AGL
Clouds: few clouds at 2500 feet AGL
scattered clouds at 4500 feet AGL
Weather: no significant weather forecast for this period
Text: PROB30
Forecast period: 0900 to 1700 UTC 03 December 2021
Forecast type: TEMPORARY: The following changes expected for less than half the time period
Winds: from the NNE (30 degrees) at 21 MPH (18 knots; 9.3 m/s)
gusting to 32 MPH (28 knots; 14.4 m/s)
Visibility: missing
Ceiling: unknown
Clouds: missing
Weather: no significant weather forecast for this period

 MAPA DE AEROPUERTO

 INFORMACIÓN DE PISTA
Pista 01 Longitud 7874 ft Ancho 148 ft
Elevación 37 ft Umbral desplazado 0 ft Rumbo de pista 2
Pista 19 Longitud 7874 ft Ancho 148 ft
Elevación 75 ft Umbral desplazado 0 ft Rumbo de pista 182

 FRECUANCIAS DEL AEROPUERTO
Tipo APP Nombre CANARIAS A Frecuencia 129.3 MHZ
Tipo ATIS Nombre ATIS Frecuencia 118.65 MHZ
Tipo GND Nombre GND Frecuencia 121.7 MHZ
Tipo TWR Nombre TWR Frecuencia 118.5 MHZ

 RADIO AYUDAS DEL AEROPUERTO
Tipo VOR-DME Nombre Fuerteventura Frecuencia 114100 KHZ



Powered by Virtual Airlines Manager [v2.6.2]